Time;durP1;ratioP1;P1;durP2;ratioP2;P2;SDS_P1;SDS_P2;PMS_P1;PMS_P2;Temp;Humidity;BMP_temperature;BMP_pressure;BME280_temperature;BME280_humidity;BME280_pressure;Samples;Min_cycle;Max_cycle;Signal;HPM_P1;HPM_P2
2021/12/19 00:01:19;;;;;;;10.30;3.45;;;;;;;;;;5051095;28;20045;-57
2021/12/19 00:09:12;;;;;;;6.85;2.58;;;;;;;;;;5051725;28;20048;-56
2021/12/19 00:11:38;;;;;;;11.23;3.90;;;;;;;;;;5050266;28;20135;-58
2021/12/19 00:14:04;;;;;;;6.70;2.70;;;;;;;;;;5040742;28;20040;-58
2021/12/19 00:16:30;;;;;;;9.15;3.05;;;;;;;;;;5050689;28;20044;-58
2021/12/19 00:18:57;;;;;;;6.80;2.90;;;;;;;;;;5051717;28;20436;-58
2021/12/19 00:21:25;;;;;;;8.60;2.83;;;7.60;99.90;;;;;;5050771;28;20033;-58
2021/12/19 00:23:54;;;;;;;8.88;2.60;;;7.70;99.90;;;;;;5033400;28;20080;-55
2021/12/19 00:26:20;;;;;;;8.00;2.95;;;;;;;;;;5051095;28;20037;-58
2021/12/19 00:28:48;;;;;;;11.98;3.00;;;;;;;;;;5049625;28;20037;-56
2021/12/19 00:31:14;;;;;;;8.07;2.92;;;;;;;;;;5050883;28;20044;-56
2021/12/19 00:33:40;;;;;;;7.35;2.85;;;7.80;99.90;;;;;;5056477;28;20094;-59
2021/12/19 00:36:07;;;;;;;6.40;2.80;;;7.80;99.90;;;;;;5070300;28;20512;-58
2021/12/19 00:38:33;;;;;;;7.32;2.17;;;7.80;99.90;;;;;;5066009;28;20076;-58
2021/12/19 00:40:59;;;;;;;6.10;2.28;;;;;;;;;;5050397;28;20072;-57
2021/12/19 00:43:35;;;;;;;8.23;2.40;;;7.30;99.90;;;;;;5049437;28;20120;-58
2021/12/19 00:46:07;;;;;;;6.43;1.98;;;7.70;99.90;;;;;;5049734;28;20041;-58
2021/12/19 00:48:33;;;;;;;6.72;2.00;;;;;;;;;;5051612;28;20048;-58
2021/12/19 00:50:59;;;;;;;6.75;2.53;;;7.60;99.90;;;;;;5051101;28;20041;-58
2021/12/19 00:53:25;;;;;;;8.32;2.28;;;7.60;99.90;;;;;;5050602;28;20037;-57
2021/12/19 00:55:51;;;;;;;6.72;2.33;;;;;;;;;;5049925;28;20045;-57
2021/12/19 00:58:17;;;;;;;9.43;2.72;;;;;;;;;;5050009;28;20045;-57
2021/12/19 01:00:43;;;;;;;8.10;3.30;;;;;;;;;;5056202;28;20418;-58
2021/12/19 01:03:09;;;;;;;8.75;3.00;;;;;;;;;;5035093;28;20041;-57
2021/12/19 01:05:37;;;;;;;9.60;3.40;;;;;;;;;;5049799;28;20043;-57
2021/12/19 01:08:05;;;;;;;8.63;3.17;;;7.60;99.90;;;;;;5050539;28;20051;-58
2021/12/19 01:10:31;;;;;;;7.50;2.30;;;;;;;;;;5042306;28;20068;-58
2021/12/19 01:12:57;;;;;;;6.85;2.17;;;7.70;99.90;;;;;;5049569;28;20458;-56
2021/12/19 01:15:22;;;;;;;8.23;2.13;;;7.40;99.90;;;;;;5049389;28;20069;-58
2021/12/19 01:17:48;;;;;;;6.03;1.42;;;;;;;;;;5049850;28;20038;-58
2021/12/19 01:20:16;;;;;;;3.88;1.38;;;;;;;;;;5050900;28;20052;-58
2021/12/19 01:22:43;;;;;;;5.68;1.50;;;;;;;;;;5050401;28;20094;-55
2021/12/19 01:25:09;;;;;;;6.18;1.58;;;;;;;;;;5050218;28;20048;-58
2021/12/19 01:27:35;;;;;;;9.63;1.38;;;;;;;;;;5064507;28;20163;-58
2021/12/19 01:30:01;;;;;;;4.38;1.15;;;;;;;;;;5032212;28;20084;-56
2021/12/19 01:32:27;;;;;;;4.50;1.20;;;;;;;;;;5050758;28;20097;-56
2021/12/19 01:34:53;;;;;;;5.97;1.45;;;7.60;99.90;;;;;;5039765;28;20041;-56
2021/12/19 01:37:18;;;;;;;8.68;1.80;;;7.60;99.90;;;;;;5050317;28;20402;-56
2021/12/19 01:39:44;;;;;;;5.20;1.65;;;;;;;;;;5049464;28;20125;-57
2021/12/19 01:42:11;;;;;;;7.30;1.80;;;7.00;99.90;;;;;;5049821;28;20033;-58
2021/12/19 01:44:37;;;;;;;4.60;1.30;;;7.50;99.90;;;;;;5048429;28;20045;-55
2021/12/19 01:47:03;;;;;;;5.57;1.90;;;7.40;99.90;;;;;;5050156;28;20116;-58
2021/12/19 01:49:29;;;;;;;4.10;1.27;;;7.50;99.90;;;;;;5050525;28;20037;-57
2021/12/19 01:51:55;;;;;;;4.03;1.17;;;;;;;;;;5050142;28;20410;-58
2021/12/19 01:54:21;;;;;;;4.65;1.30;;;;;;;;;;5048683;28;20037;-56
2021/12/19 01:56:47;;;;;;;4.95;1.40;;;;;;;;;;5050215;28;20476;-56
2021/12/19 01:59:13;;;;;;;5.88;1.80;;;;;;;;;;5049191;28;20513;-56
2021/12/19 02:01:47;;;;;;;6.38;1.52;;;7.40;99.90;;;;;;5050242;28;20037;-57
2021/12/19 02:04:14;;;;;;;6.50;1.30;;;;;;;;;;5049042;28;20116;-56
2021/12/19 02:06:39;;;;;;;5.43;1.48;;;;;;;;;;5032532;28;20056;-57
2021/12/19 02:09:07;;;;;;;4.03;1.13;;;7.60;99.90;;;;;;5030818;28;20044;-58
2021/12/19 02:11:34;;;;;;;3.83;1.10;;;7.60;99.90;;;;;;5069892;28;20178;-57
2021/12/19 02:14:00;;;;;;;5.90;1.20;;;;;;;;;;5048941;28;20068;-56
2021/12/19 02:16:26;;;;;;;4.60;1.67;;;;;;;;;;5030698;28;20141;-58
2021/12/19 02:18:52;;;;;;;6.70;1.20;;;7.50;99.90;;;;;;5049631;28;20047;-57
2021/12/19 02:21:17;;;;;;;6.68;1.60;;;7.50;99.90;;;;;;5032628;28;20037;-56
2021/12/19 02:23:43;;;;;;;6.43;1.50;;;;;;;;;;5050983;28;20405;-61
2021/12/19 02:26:09;;;;;;;4.53;1.48;;;;;;;;;;5055737;28;20045;-58
2021/12/19 02:28:35;;;;;;;5.30;1.70;;;;;;;;;;5034012;28;20044;-56
2021/12/19 02:31:01;;;;;;;6.13;1.50;;;;;;;;;;5049887;28;20591;-57
2021/12/19 02:33:32;;;;;;;5.18;1.40;;;7.60;99.90;;;;;;5049072;28;20041;-58
2021/12/19 02:36:07;;;;;;;5.20;1.35;;;;;;;;;;5047964;28;20033;-56
2021/12/19 02:39:18;;;;;;;4.70;1.65;;;;;;;;;;5050124;28;20048;-57
2021/12/19 02:49:20;;;;;;;3.53;1.10;;;;;;;;;;5052403;28;20048;-70
2021/12/19 02:51:47;;;;;;;5.07;1.10;;;;;;;;;;5053675;28;20506;-70
2021/12/19 02:54:13;;;;;;;3.83;0.98;;;;;;;;;;5034766;28;20049;-70
2021/12/19 02:56:38;;;;;;;6.15;1.20;;;7.20;99.90;;;;;;5034837;28;20131;-70
2021/12/19 02:59:05;;;;;;;5.50;1.65;;;;;;;;;;5052323;28;20037;-70
2021/12/19 03:01:30;;;;;;;5.60;1.38;;;7.10;99.90;;;;;;5045108;28;20482;-70
2021/12/19 03:03:56;;;;;;;4.00;1.00;;;7.30;99.90;;;;;;5035654;28;20048;-69
2021/12/19 03:06:22;;;;;;;5.13;1.30;;;;;;;;;;5031568;28;20106;-70
2021/12/19 03:08:50;;;;;;;4.32;1.00;;;;;;;;;;5034362;28;20045;-69
2021/12/19 03:19:18;;;;;;;5.10;1.10;;;7.00;99.90;;;;;;5069933;28;20044;-70
2021/12/19 03:21:44;;;;;;;5.40;1.10;;;7.00;99.90;;;;;;5073004;28;20039;-70
2021/12/19 03:24:10;;;;;;;6.05;1.60;;;;;;;;;;5061462;28;20380;-70
2021/12/19 03:26:36;;;;;;;6.40;1.58;;;7.10;99.90;;;;;;5018196;28;20094;-70
2021/12/19 03:29:02;;;;;;;6.93;1.60;;;;;;;;;;5051840;28;20090;-70
2021/12/19 03:31:28;;;;;;;9.63;1.85;;;;;;;;;;5033530;28;20045;-70
2021/12/19 03:33:54;;;;;;;7.47;1.70;;;;;;;;;;5056807;28;20396;-70
2021/12/19 03:36:19;;;;;;;11.50;2.10;;;7.30;99.90;;;;;;5050494;28;20064;-70
2021/12/19 03:38:45;;;;;;;6.80;2.33;;;7.10;99.90;;;;;;5052430;28;20073;-70
2021/12/19 03:43:38;;;;;;;6.68;1.63;;;;;;;;;;5038695;28;20040;-70
2021/12/19 03:46:03;;;;;;;12.25;3.63;;;7.10;99.90;;;;;;5032160;28;20556;-70
2021/12/19 03:48:29;;;;;;;6.55;1.67;;;;;;;;;;5034520;28;20040;-70
2021/12/19 03:50:55;;;;;;;6.25;1.58;;;;;;;;;;5034365;28;20077;-70
2021/12/19 03:53:22;;;;;;;5.43;1.48;;;;;;;;;;5051692;28;20048;-70
2021/12/19 03:55:49;;;;;;;5.05;1.40;;;;;;;;;;5032229;28;20055;-70
2021/12/19 03:58:15;;;;;;;5.25;1.42;;;;;;;;;;5060959;28;20071;-70
2021/12/19 04:00:43;;;;;;;5.47;1.58;;;;;;;;;;5037722;28;20068;-70
2021/12/19 04:03:10;;;;;;;5.35;1.58;;;7.20;99.90;;;;;;5042460;28;20037;-70
2021/12/19 04:05:38;;;;;;;7.18;2.80;;;;;;;;;;5033603;28;20048;-70
2021/12/19 04:08:04;;;;;;;7.90;1.60;;;;;;;;;;5032909;28;20502;-70
2021/12/19 04:10:30;;;;;;;5.15;1.42;;;7.10;99.90;;;;;;5051800;28;20044;-70
2021/12/19 04:12:56;;;;;;;8.48;1.80;;;7.50;99.90;;;;;;5051511;28;20041;-70
2021/12/19 04:15:22;;;;;;;7.65;1.70;;;7.00;99.90;;;;;;5050811;28;20073;-70
2021/12/19 04:17:49;;;;;;;6.38;1.85;;;;;;;;;;5051181;28;20052;-70
2021/12/19 04:20:15;;;;;;;5.72;1.58;;;;;;;;;;5033932;28;20049;-70
2021/12/19 04:22:42;;;;;;;9.10;1.95;;;;;;;;;;5034016;28;20095;-70
2021/12/19 04:25:08;;;;;;;8.70;2.03;;;;;;;;;;5050777;28;20045;-70
2021/12/19 04:27:34;;;;;;;8.20;1.92;;;;;;;;;;5051511;28;20098;-70
2021/12/19 04:30:00;;;;;;;8.18;2.10;;;;;;;;;;5033040;28;20049;-70
2021/12/19 04:32:32;;;;;;;9.63;3.30;;;;;;;;;;5051995;28;20486;-70
2021/12/19 04:34:57;;;;;;;11.32;4.15;;;7.40;99.90;;;;;;5050249;28;20488;-71
2021/12/19 04:38:43;;;;;;;8.50;2.88;;;7.40;99.90;;;;;;5051485;28;20120;-70
2021/12/19 04:40:15;;;;;;;10.05;3.88;;;;;;;;;;5043447;28;20037;-70
2021/12/19 04:43:45;;;;;;;10.63;3.58;;;;;;;;;;5051251;28;20047;-70
2021/12/19 05:15:08;;;;;;;19.63;6.77;;;;;;;;;;5049856;28;20045;-69
2021/12/19 05:17:34;;;;;;;18.90;7.47;;;7.60;99.90;;;;;;5030679;28;20299;-69
2021/12/19 05:20:20;;;;;;;18.38;7.90;;;7.50;99.90;;;;;;5051044;28;20041;-69
2021/12/19 05:22:49;;;;;;;21.58;8.90;;;;;;;;;;5033188;28;20413;-69
2021/12/19 05:25:17;;;;;;;22.92;10.30;;;7.30;99.90;;;;;;5032798;28;20072;-69
2021/12/19 05:27:52;;;;;;;22.15;10.18;;;7.40;99.90;;;;;;5070332;28;20113;-69
2021/12/19 05:30:18;;;;;;;;;;;7.50;99.90;;;;;;5033198;28;20044;-69
2021/12/19 05:32:44;;;;;;;20.60;9.10;;;;;;;;;;5049844;28;19917;-69
2021/12/19 05:35:12;;;;;;;16.83;8.32;;;;;;;;;;5031361;28;20041;-69
2021/12/19 05:45:53;;;;;;;19.48;8.00;;;;;;;;;;5030840;28;20041;-69
2021/12/19 05:48:19;;;;;;;13.18;5.82;;;7.50;99.90;;;;;;5032381;28;20484;-69
2021/12/19 05:50:45;;;;;;;13.52;5.05;;;;;;;;;;5050175;28;20037;-69
2021/12/19 05:53:11;;;;;;;17.98;5.43;;;7.50;99.90;;;;;;5032151;28;20045;-69
2021/12/19 05:55:37;;;;;;;14.52;4.88;;;7.40;99.90;;;;;;5035873;28;20043;-69
2021/12/19 05:58:03;;;;;;;13.38;4.22;;;7.50;99.90;;;;;;5069551;28;20444;-69
2021/12/19 06:00:29;;;;;;;11.95;4.07;;;7.50;99.90;;;;;;5031575;28;20094;-70
2021/12/19 06:02:55;;;;;;;12.02;3.85;;;;;;;;;;5032176;28;20055;-69
2021/12/19 06:05:21;;;;;;;17.42;3.80;;;;;;;;;;5031735;28;20045;-69
2021/12/19 06:07:47;;;;;;;11.85;3.75;;;7.60;99.90;;;;;;5050288;28;20042;-69
2021/12/19 06:10:13;;;;;;;13.93;3.92;;;;;;;;;;5031144;28;20569;-69
2021/12/19 06:12:40;;;;;;;12.23;3.90;;;;;;;;;;5015977;28;20278;-69
2021/12/19 06:15:08;;;;;;;12.75;4.07;;;;;;;;;;5048707;28;20040;-69
2021/12/19 06:17:34;;;;;;;12.70;4.38;;;7.40;99.90;;;;;;5032537;28;20498;-71
2021/12/19 06:20:00;;;;;;;20.15;5.22;;;;;;;;;;5048129;28;20406;-69
2021/12/19 06:22:26;;;;;;;15.80;4.70;;;;;;;;;;5056314;28;20094;-69
2021/12/19 06:24:52;;;;;;;13.18;4.97;;;;;;;;;;5038009;28;20075;-69
2021/12/19 06:27:18;;;;;;;25.88;6.78;;;;;;;;;;5036463;28;20080;-69
2021/12/19 06:29:44;;;;;;;15.48;4.88;;;;;;;;;;5052933;28;20045;-69
2021/12/19 06:32:10;;;;;;;14.60;4.82;;;7.50;99.90;;;;;;5054000;28;20049;-69
2021/12/19 06:34:36;;;;;;;13.43;5.88;;;7.50;99.90;;;;;;5052289;28;20033;-69
2021/12/19 06:37:02;;;;;;;15.73;5.13;;;;;;;;;;5051774;28;20089;-69
2021/12/19 06:39:28;;;;;;;15.85;6.03;;;;;;;;;;5072128;28;20037;-69
2021/12/19 06:41:54;;;;;;;19.48;6.43;;;;;;;;;;5065261;28;20108;-69
2021/12/19 06:44:22;;;;;;;21.45;7.15;;;;;;;;;;5052256;28;20071;-69
2021/12/19 06:46:48;;;;;;;12.38;4.38;;;;;;;;;;5035255;28;20103;-69
2021/12/19 06:49:13;;;;;;;10.15;3.28;;;7.50;99.90;;;;;;5052894;28;20041;-69
2021/12/19 06:51:39;;;;;;;12.23;3.80;;;;;;;;;;5053373;28;20047;-69
2021/12/19 06:54:05;;;;;;;9.63;2.40;;;7.50;99.90;;;;;;5052276;28;20094;-70
2021/12/19 06:56:31;;;;;;;10.10;2.55;;;;;;;;;;5052743;28;20063;-69
2021/12/19 06:58:57;;;;;;;8.65;2.30;;;;;;;;;;5035081;28;20041;-69
2021/12/19 07:01:23;;;;;;;5.68;1.85;;;;;;;;;;5018465;28;20049;-69
2021/12/19 07:03:49;;;;;;;8.32;2.10;;;;;;;;;;5035099;28;20745;-69
2021/12/19 07:06:15;;;;;;;9.07;2.13;;;7.40;99.90;;;;;;5052919;28;20071;-69
2021/12/19 07:08:41;;;;;;;10.68;2.42;;;;;;;;;;5052097;28;20041;-69
2021/12/19 07:11:07;;;;;;;8.70;2.00;;;;;;;;;;5053240;28;20582;-70
2021/12/19 07:13:33;;;;;;;8.20;2.13;;;;;;;;;;5051990;28;20037;-69
2021/12/19 07:16:00;;;;;;;8.95;2.13;;;;;;;;;;5051937;28;20076;-69
2021/12/19 07:18:26;;;;;;;13.43;2.40;;;;;;;;;;5034396;28;20561;-70
2021/12/19 07:20:52;;;;;;;7.05;2.10;;;;;;;;;;5034978;28;20076;-69
2021/12/19 07:23:19;;;;;;;8.57;2.45;;;;;;;;;;5052595;28;20044;-70
2021/12/19 07:25:45;;;;;;;9.20;2.63;;;7.50;99.90;;;;;;5033765;28;20406;-69
2021/12/19 07:28:11;;;;;;;10.38;2.15;;;;;;;;;;5051476;28;20041;-70
2021/12/19 07:30:37;;;;;;;11.35;2.58;;;;;;;;;;5033814;28;20072;-69
2021/12/19 07:33:04;;;;;;;10.02;2.15;;;;;;;;;;5033771;28;20528;-69
2021/12/19 07:35:34;;;;;;;18.65;3.35;;;7.40;99.90;;;;;;5033331;28;20556;-71
2021/12/19 07:38:00;;;;;;;10.60;3.38;;;7.40;99.90;;;;;;5033801;28;20048;-69
2021/12/19 07:40:28;;;;;;;10.38;3.08;;;7.20;99.90;;;;;;5033975;28;20406;-70
2021/12/19 07:42:58;;;;;;;11.05;3.25;;;;;;;;;;5033993;28;20033;-70
2021/12/19 07:45:24;;;;;;;10.02;3.03;;;;;;;;;;5033348;28;20123;-69
2021/12/19 07:47:50;;;;;;;15.95;4.55;;;;;;;;;;5051919;28;20044;-70
2021/12/19 07:50:16;;;;;;;11.90;3.90;;;;;;;;;;5033798;28;20053;-69
2021/12/19 07:52:42;;;;;;;11.93;3.83;;;7.40;99.90;;;;;;5034636;28;20052;-70
2021/12/19 07:55:08;;;;;;;14.68;3.75;;;;;;;;;;5032073;28;20360;-69
2021/12/19 07:57:34;;;;;;;14.95;4.57;;;7.50;99.90;;;;;;5033515;28;20119;-69
2021/12/19 08:00:00;;;;;;;17.15;4.47;;;7.50;99.90;;;;;;5048707;28;20039;-69
2021/12/19 08:02:27;;;;;;;16.05;4.13;;;;;;;;;;5031440;28;20048;-70
2021/12/19 08:04:53;;;;;;;10.98;3.80;;;;;;;;;;5048998;28;20045;-70
2021/12/19 08:07:23;;;;;;;12.13;4.15;;;;;;;;;;5049651;28;20612;-70
2021/12/19 08:10:14;;;;;;;15.85;4.72;;;;;;;;;;5051195;28;20115;-70
2021/12/19 08:12:41;;;;;;;16.95;4.50;;;;;;;;;;5050515;28;20442;-69
2021/12/19 08:15:08;;;;;;;11.98;4.55;;;;;;;;;;5049778;28;20121;-69
2021/12/19 08:17:34;;;;;;;16.90;4.30;;;7.70;99.90;;;;;;5045191;28;20045;-71
2021/12/19 08:20:00;;;;;;;15.88;3.78;;;7.70;99.90;;;;;;5061364;28;20063;-69
2021/12/19 08:22:27;;;;;;;14.82;3.65;;;7.70;99.90;;;;;;5071308;28;20071;-69
2021/12/19 08:24:53;;;;;;;12.68;4.70;;;;;;;;;;5036343;28;20387;-69
2021/12/19 08:27:19;;;;;;;10.05;3.10;;;;;;;;;;5039188;28;20052;-69
2021/12/19 08:29:48;;;;;;;14.40;3.53;;;;;;;;;;5032298;28;20052;-69
2021/12/19 08:32:14;;;;;;;10.35;2.75;;;;;;;;;;5033762;28;20131;-69
2021/12/19 08:34:40;;;;;;;10.57;2.47;;;;;;;;;;5032650;28;20449;-69
2021/12/19 08:37:07;;;;;;;11.70;3.30;;;;;;;;;;5050981;28;20494;-69
2021/12/19 08:39:33;;;;;;;9.45;2.55;;;;;;;;;;5032353;28;20040;-70
2021/12/19 08:42:00;;;;;;;11.52;2.45;;;7.80;99.90;;;;;;5032091;28;20498;-69
2021/12/19 08:44:26;;;;;;;11.75;3.00;;;;;;;;;;5050265;28;20043;-70
2021/12/19 08:46:53;;;;;;;10.57;2.63;;;;;;;;;;5050375;28;20041;-69
2021/12/19 08:49:19;;;;;;;8.15;2.13;;;;;;;;;;5032666;28;20080;-69
2021/12/19 08:51:45;;;;;;;8.70;3.10;;;;;;;;;;5046243;28;20045;-69
2021/12/19 08:54:11;;;;;;;10.00;2.28;;;;;;;;;;5047029;28;20044;-69
2021/12/19 08:56:36;;;;;;;10.05;2.58;;;7.90;99.90;;;;;;5015933;28;20072;-69
2021/12/19 08:59:03;;;;;;;7.28;2.47;;;7.90;99.90;;;;;;5051183;28;20080;-69
2021/12/19 09:01:31;;;;;;;9.70;2.88;;;7.90;99.90;;;;;;5049971;28;20033;-69
2021/12/19 09:03:57;;;;;;;11.98;2.85;;;;;;;;;;5032031;28;20037;-69
2021/12/19 09:06:22;;;;;;;11.95;3.15;;;7.90;99.90;;;;;;5033933;28;20075;-70
2021/12/19 09:08:48;;;;;;;13.05;3.33;;;;;;;;;;5046552;28;20499;-70
2021/12/19 09:11:14;;;;;;;10.52;3.25;;;;;;;;;;5033629;28;20463;-70
2021/12/19 09:13:40;;;;;;;17.15;3.05;;;7.80;99.90;;;;;;5037097;28;20094;-70
2021/12/19 09:16:06;;;;;;;12.52;3.28;;;;;;;;;;5051797;28;20554;-70
2021/12/19 09:18:31;;;;;;;13.93;3.45;;;7.80;99.90;;;;;;5018392;28;20119;-70
2021/12/19 09:20:57;;;;;;;15.52;3.47;;;;;;;;;;5023276;28;20167;-70
2021/12/19 09:23:24;;;;;;;11.25;3.20;;;;;;;;;;5066226;28;20112;-70
2021/12/19 09:25:50;;;;;;;12.88;3.65;;;;;;;;;;5031214;28;20040;-70
2021/12/19 09:28:17;;;;;;;9.90;3.25;;;7.90;99.90;;;;;;5049617;28;20205;-70
2021/12/19 09:30:44;;;;;;;10.00;3.50;;;;;;;;;;5032396;28;20041;-70
2021/12/19 09:33:10;;;;;;;14.45;4.10;;;;;;;;;;5050536;28;20128;-69
2021/12/19 09:35:36;;;;;;;11.60;3.25;;;;;;;;;;5047950;28;20040;-69
2021/12/19 09:38:03;;;;;;;18.70;3.40;;;;;;;;;;5031447;28;20294;-70
2021/12/19 09:40:34;;;;;;;14.23;3.83;;;;;;;;;;5050415;28;20037;-69
2021/12/19 09:43:10;;;;;;;13.68;4.22;;;;;;;;;;5049940;28;20456;-69
2021/12/19 09:45:36;;;;;;;13.50;4.10;;;7.90;99.90;;;;;;5041582;28;20051;-70
2021/12/19 09:48:02;;;;;;;11.57;3.90;;;;;;;;;;5049863;28;20469;-69
2021/12/19 09:50:31;;;;;;;12.35;4.07;;;;;;;;;;5042858;28;20040;-70
2021/12/19 09:52:57;;;;;;;18.30;4.30;;;8.00;99.90;;;;;;5064485;28;20029;-70
2021/12/19 09:55:22;;;;;;;14.43;4.30;;;8.00;99.90;;;;;;5034490;28;20502;-70
2021/12/19 09:57:49;;;;;;;13.88;4.85;;;;;;;;;;5054395;28;20025;-70
2021/12/19 10:00:16;;;;;;;20.65;5.80;;;7.40;99.90;;;;;;5053374;28;20078;-71
2021/12/19 10:02:42;;;;;;;30.98;17.20;;;;;;;;;;5035719;28;20072;-70
2021/12/19 10:05:25;;;;;;;14.55;5.10;;;;;;;;;;5035507;28;20123;-70
2021/12/19 10:07:53;;;;;;;15.30;4.00;;;;;;;;;;5038719;28;20080;-70
2021/12/19 10:10:26;;;;;;;14.48;3.55;;;;;;;;;;5019816;28;20049;-70
2021/12/19 10:12:53;;;;;;;16.50;2.80;;;;;;;;;;5053349;28;20120;-70
2021/12/19 10:15:30;;;;;;;13.50;3.50;;;;;;;;;;5063038;28;20047;-70
2021/12/19 10:18:16;;;;;;;9.82;2.90;;;8.70;99.90;;;;;;5041000;28;20048;-70
2021/12/19 10:20:45;;;;;;;8.52;3.80;;;8.70;99.90;;;;;;5054167;28;20076;-70
2021/12/19 10:23:12;;;;;;;13.38;3.65;;;;;;;;;;5052481;28;20037;-70
2021/12/19 10:25:38;;;;;;;10.90;3.80;;;;;;;;;;5010559;28;20048;-70
2021/12/19 10:28:08;;;;;;;15.15;3.70;;;;;;;;;;5035024;28;20405;-70
2021/12/19 10:30:37;;;;;;;13.38;4.30;;;7.90;99.90;;;;;;5028170;28;20044;-70
2021/12/19 10:33:17;;;;;;;13.07;3.78;;;;;;;;;;5019187;28;20049;-70
2021/12/19 10:36:03;;;;;;;19.75;5.38;;;;;;;;;;5045926;28;20119;-70
2021/12/19 10:38:41;;;;;;;17.02;3.97;;;;;;;;;;5034841;28;20033;-70
2021/12/19 10:41:15;;;;;;;15.27;4.22;;;;;;;;;;5035637;28;20033;-71
2021/12/19 10:43:51;;;;;;;18.53;4.43;;;8.70;99.90;;;;;;5035187;28;20045;-70
2021/12/19 10:46:26;;;;;;;15.77;4.53;;;;;;;;;;5051389;28;20854;-70
2021/12/19 10:48:52;;;;;;;12.25;4.25;;;;;;;;;;5029171;28;20064;-70
2021/12/19 10:51:19;;;;;;;16.73;4.78;;;;;;;;;;5053007;28;20678;-70
2021/12/19 10:53:52;;;;;;;19.50;4.30;;;8.00;99.90;;;;;;5034913;28;20045;-70
2021/12/19 10:56:20;;;;;;;16.77;4.22;;;;;;;;;;5034329;28;20461;-70
2021/12/19 10:58:51;;;;;;;15.90;4.10;;;;;;;;;;5034586;28;20097;-70
2021/12/19 11:01:31;;;;;;;17.15;4.80;;;;;;;;;;5052443;28;20052;-70
2021/12/19 11:04:07;;;;;;;13.70;3.25;;;;;;;;;;5034313;28;20036;-70
2021/12/19 11:06:45;;;;;;;18.60;4.47;;;;;;;;;;5052099;28;20052;-70
2021/12/19 11:09:13;;;;;;;11.43;3.03;;;;;;;;;;5017737;28;20045;-70
2021/12/19 11:12:03;;;;;;;11.07;3.03;;;8.20;99.90;;;;;;5034297;28;20464;-70
2021/12/19 11:14:31;;;;;;;11.38;3.50;;;;;;;;;;5017050;28;20120;-70
2021/12/19 11:17:21;;;;;;;14.45;3.40;;;8.90;99.90;;;;;;5052080;28;20112;-70
2021/12/19 11:19:52;;;;;;;7.70;2.22;;;;;;;;;;5033402;28;20037;-70
2021/12/19 11:22:23;;;;;;;10.88;2.75;;;;;;;;;;5052963;28;20049;-70
2021/12/19 11:24:51;;;;;;;12.10;3.42;;;;;;;;;;5016893;28;20403;-70
2021/12/19 11:27:18;;;;;;;11.88;2.53;;;;;;;;;;5034549;28;20091;-70
2021/12/19 11:29:45;;;;;;;15.10;3.13;;;;;;;;;;5034184;28;20048;-70
2021/12/19 11:32:18;;;;;;;8.55;2.50;;;;;;;;;;5034570;28;20112;-70
2021/12/19 11:35:08;;;;;;;7.93;2.47;;;8.30;99.90;;;;;;5051458;28;20075;-70
2021/12/19 11:37:43;;;;;;;8.05;2.30;;;;;;;;;;5034316;28;20045;-70
2021/12/19 11:40:14;;;;;;;12.55;3.17;;;;;;;;;;5034736;28;20052;-70
2021/12/19 11:42:41;;;;;;;9.10;2.83;;;;;;;;;;5033682;28;20056;-69
2021/12/19 11:45:40;;;;;;;16.73;3.42;;;;;;;;;;5033492;28;20379;-70
2021/12/19 11:48:25;;;;;;;12.43;3.42;;;;;;;;;;5051125;28;20494;-69
2021/12/19 11:50:59;;;;;;;11.65;3.78;;;8.00;99.90;;;;;;5034150;28;20124;-70
2021/12/19 11:53:25;;;;;;;14.00;3.60;;;;;;;;;;5033621;28;20133;-69
2021/12/19 11:55:53;;;;;;;15.38;3.15;;;;;;;;;;5033346;28;20128;-70
2021/12/19 11:58:25;;;;;;;9.20;2.70;;;8.10;99.90;;;;;;5034204;28;20044;-70
2021/12/19 12:00:54;;;;;;;16.27;2.78;;;;;;;;;;5051532;28;20551;-70
2021/12/19 12:03:21;;;;;;;14.80;4.00;;;;;;;;;;5040145;28;20037;-70
2021/12/19 12:05:48;;;;;;;11.02;2.78;;;;;;;;;;5033398;28;20048;-70
2021/12/19 12:08:14;;;;;;;14.82;3.92;;;;;;;;;;5032965;28;20561;-70
2021/12/19 12:13:15;;;;;;;;;;;;;;;;;;5051542;28;20080;-70
2021/12/19 12:15:41;;;;;;;18.95;3.90;;;;;;;;;;5050729;28;19970;-69
2021/12/19 12:18:27;;;;;;;17.88;3.72;;;;;;;;;;5049975;28;20502;-70
2021/12/19 12:20:53;;;;;;;18.25;5.07;;;;;;;;;;5033968;28;20048;-70
2021/12/19 12:23:25;;;;;;;20.60;5.80;;;;;;;;;;5051436;28;20040;-70
2021/12/19 12:25:51;;;;;;;17.42;3.72;;;;;;;;;;5032761;28;20044;-70
2021/12/19 12:28:18;;;;;;;14.20;3.88;;;;;;;;;;5032004;28;20068;-70
2021/12/19 12:30:45;;;;;;;11.75;3.38;;;;;;;;;;5032804;28;20041;-70
2021/12/19 12:33:14;;;;;;;13.70;3.25;;;8.90;99.90;;;;;;5050591;28;20548;-70
2021/12/19 12:35:41;;;;;;;16.77;3.80;;;;;;;;;;5031842;28;20045;-70
2021/12/19 12:38:08;;;;;;;14.73;3.75;;;;;;;;;;5016095;28;20118;-69
2021/12/19 12:40:46;;;;;;;12.68;3.03;;;;;;;;;;5043764;28;20140;-69
2021/12/19 12:43:35;;;;;;;12.82;3.55;;;9.20;99.90;;;;;;5032194;28;20044;-70
2021/12/19 12:46:09;;;;;;;13.15;3.35;;;;;;;;;;5049540;28;20419;-69
2021/12/19 12:48:51;;;;;;;12.48;3.45;;;;;;;;;;5050502;28;20032;-70
2021/12/19 12:51:24;;;;;;;12.10;3.20;;;;;;;;;;5050863;28;20049;-70
2021/12/19 12:53:53;;;;;;;14.88;4.22;;;;;;;;;;5032707;28;20387;-70
2021/12/19 12:56:24;;;;;;;13.02;4.45;;;8.60;99.90;;;;;;5015991;28;20045;-70
2021/12/19 12:58:55;;;;;;;15.88;3.85;;;;;;;;;;5031934;28;20152;-70
2021/12/19 13:01:29;;;;;;;17.50;3.72;;;8.10;99.90;;;;;;5033013;28;20037;-70
2021/12/19 13:03:56;;;;;;;14.05;3.58;;;;;;;;;;5029771;28;20679;-70
2021/12/19 13:06:43;;;;;;;17.35;3.72;;;;;;;;;;5049566;28;20052;-69
2021/12/19 13:09:16;;;;;;;14.18;3.92;;;;;;;;;;5040336;28;20097;-70
2021/12/19 13:11:44;;;;;;;15.40;4.50;;;;;;;;;;5061794;28;20339;-71
2021/12/19 13:14:24;;;;;;;17.08;3.97;;;9.20;99.90;;;;;;5016497;28;20287;-70
2021/12/19 13:16:53;;;;;;;14.35;3.00;;;;;;;;;;5031996;28;20056;-70
2021/12/19 13:19:37;;;;;;;15.90;3.75;;;;;;;;;;5034029;28;20038;-70
2021/12/19 13:22:05;;;;;;;16.92;4.32;;;;;;;;;;5052602;28;20555;-70
2021/12/19 13:24:34;;;;;;;19.85;3.80;;;8.50;99.90;;;;;;5038839;28;20090;-70
2021/12/19 13:27:11;;;;;;;15.98;3.65;;;8.60;99.90;;;;;;5038903;28;20517;-70
2021/12/19 13:29:37;;;;;;;19.02;3.75;;;8.60;99.90;;;;;;5053790;28;20041;-70
2021/12/19 13:32:17;;;;;;;16.92;3.78;;;;;;;;;;5052203;28;20040;-70
2021/12/19 13:34:43;;;;;;;11.98;3.90;;;;;;;;;;5035804;28;20048;-70
2021/12/19 13:37:09;;;;;;;18.45;4.75;;;;;;;;;;5032855;28;20049;-70
2021/12/19 13:39:35;;;;;;;16.70;4.22;;;;;;;;;;5049386;28;20040;-70
2021/12/19 13:42:08;;;;;;;15.10;3.60;;;;;;;;;;5032162;28;20072;-71
2021/12/19 13:44:35;;;;;;;18.23;4.15;;;;;;;;;;5031533;28;20094;-70
2021/12/19 13:47:15;;;;;;;22.55;4.40;;;;;;;;;;5050123;28;20366;-70
2021/12/19 13:49:41;;;;;;;15.57;3.78;;;;;;;;;;5036463;28;20040;-70
2021/12/19 13:52:07;;;;;;;13.23;4.05;;;;;;;;;;5041808;28;20048;-70
2021/12/19 13:54:37;;;;;;;18.25;3.55;;;;;;;;;;5048968;28;20037;-71
2021/12/19 13:57:15;;;;;;;11.68;4.28;;;;;;;;;;5031966;28;20045;-70
2021/12/19 13:59:41;;;;;;;11.65;2.90;;;8.60;99.90;;;;;;5031591;28;20094;-70
2021/12/19 14:02:11;;;;;;;7.85;2.92;;;;;;;;;;5050329;28;20128;-70
2021/12/19 14:04:37;;;;;;;13.25;3.35;;;;;;;;;;5052599;28;20039;-70
2021/12/19 14:07:06;;;;;;;11.98;2.90;;;;;;;;;;5049453;28;20382;-70
2021/12/19 14:09:38;;;;;;;10.70;2.53;;;;;;;;;;5049440;28;20048;-70
2021/12/19 14:12:15;;;;;;;10.68;3.00;;;8.70;99.90;;;;;;5032052;28;20510;-70
2021/12/19 14:14:41;;;;;;;10.18;2.30;;;;;;;;;;5053783;28;20039;-70
2021/12/19 14:17:09;;;;;;;9.15;2.30;;;;;;;;;;5045843;28;20228;-70
2021/12/19 14:19:36;;;;;;;10.30;2.22;;;;;;;;;;5024500;28;20420;-70
2021/12/19 14:22:02;;;;;;;14.38;2.83;;;;;;;;;;5049526;28;20098;-70
2021/12/19 14:24:35;;;;;;;12.95;4.38;;;;;;;;;;5031012;28;20041;-70
2021/12/19 14:27:12;;;;;;;11.40;2.47;;;8.30;99.90;;;;;;5049291;28;20049;-70
2021/12/19 14:29:41;;;;;;;12.52;2.53;;;;;;;;;;5044844;28;20055;-70
2021/12/19 14:32:17;;;;;;;11.43;2.75;;;8.70;99.90;;;;;;5051849;28;20454;-70
2021/12/19 14:34:54;;;;;;;9.50;2.33;;;8.40;99.90;;;;;;5054821;28;20040;-70
2021/12/19 14:37:21;;;;;;;13.52;3.08;;;;;;;;;;5025015;28;20036;-70
2021/12/19 14:42:42;;;;;;;11.88;2.58;;;;;;;;;;5071256;22;20061;-70
2021/12/19 14:45:17;;;;;;;10.88;3.22;;;8.70;99.90;;;;;;5051134;28;20087;-70
2021/12/19 14:47:48;;;;;;;16.85;3.03;;;;;;;;;;5053802;28;20041;-70
2021/12/19 14:50:14;;;;;;;14.45;3.80;;;;;;;;;;5025819;28;20041;-70
2021/12/19 14:52:41;;;;;;;11.57;2.58;;;;;;;;;;5033876;28;20387;-70
2021/12/19 14:55:18;;;;;;;15.30;3.15;;;;;;;;;;5029401;28;20118;-70
2021/12/19 14:57:44;;;;;;;11.35;2.85;;;;;;;;;;5028931;28;20045;-70
2021/12/19 15:00:10;;;;;;;13.93;3.63;;;;;;;;;;5032977;28;20513;-70
2021/12/19 15:02:36;;;;;;;11.07;3.00;;;8.40;99.90;;;;;;5053380;28;20067;-70
2021/12/19 15:05:02;;;;;;;18.38;3.72;;;8.40;99.90;;;;;;5050917;28;20073;-70
2021/12/19 15:07:30;;;;;;;29.63;3.63;;;;;;;;;;5027395;28;20051;-70
2021/12/19 15:09:56;;;;;;;13.95;3.10;;;;;;;;;;5010363;28;20034;-71
2021/12/19 15:12:22;;;;;;;13.68;3.60;;;;;;;;;;5032874;28;20410;-70
2021/12/19 15:14:48;;;;;;;14.30;3.33;;;;;;;;;;5033291;28;20052;-70
2021/12/19 15:17:14;;;;;;;11.00;3.80;;;;;;;;;;5024261;28;20588;-70